Flight Track Log - Related Links

Times and Time Zones

All times are in EDT time to prevent confusion due to time zone crossing. See the AAY841 flight status page for this flight to view local times or setup timezone preferences in your user account.

Time Position Orientation Groundspeed Altitude Reporting Facility
EDT Latitude Longitude Course Direction KTS MPH feet Rate Location/Type
Thu 10:23:39 36.4589 -82.4514 286° West 180 207 3,100  Level Atlanta Center
Thu 10:24:39 36.4744 -82.5181 286° West 194 223 5,300 2,500 Climbing Atlanta Center
Thu 10:25:39 36.4333 -82.5833 232° Southwest 220 253 8,100 2,500 Climbing Atlanta Center
Thu 10:26:39 36.3672 -82.6258 207° Southwest 250 288 10,300 2,200 Climbing Atlanta Center
Thu 10:27:39 36.2772 -82.6042 169° South 291 335 12,500 2,350 Climbing Atlanta Center
Thu 10:28:39 36.1853 -82.5878 172° South 326 375 15,000 2,200 Climbing Atlanta Center
Thu 10:29:39 36.0808 -82.5692 172° South 363 418 16,900 2,150 Climbing Atlanta Center
Thu 10:30:39 35.9742 -82.5506 172° South 377 434 19,300 2,150 Climbing Atlanta Center
Thu 10:31:39 35.8633 -82.5294 171° South 390 449 21,200 1,610 Climbing Atlanta Center
Thu 10:36:48 35.1905 -82.4129 172° South 453 521 29,200 1,544 Climbing FlightAware (KDZJ)
Thu 10:37:21 35.1225 -82.4012 172° South 453 521 30,000 1,408 Climbing FlightAware (KDZJ)
Thu 10:38:26 34.9849 -82.3776 172° South 456 525 31,500 1,250 Climbing FlightAware (KDZJ)
Thu 10:38:57 34.9197 -82.3664 172° South 453 521 32,000 417 Climbing FlightAware (KDZJ)
Thu 10:39:38 34.8352 -82.3520 172° South 452 520 32,000  Level FlightAware (KDZJ)
Thu 10:40:23 34.7406 -82.3359 172° South 452 520 32,000  Level FlightAware (KDZJ)
Thu 10:41:06 34.6509 -82.3207 172° South 453 521 32,000 800 Level FlightAware (KDZJ)
Thu 10:42:08 34.5243 -82.2990 172° South 442 509 33,400 645 Climbing FlightAware (KDZJ)
Thu 10:42:39 34.5417 -82.3039 172° South 453 521 33,000 857 Descending Atlanta Center
Thu 10:43:39 34.4014 -82.2789 172° South 453 521 34,700 1,400 Climbing Atlanta Center
Thu 10:44:39 34.2803 -82.2589 172° South 453 521 35,800 650 Climbing Atlanta Center
Thu 10:45:39 34.1589 -82.2364 171° South 448 516 36,000 100 Climbing Atlanta Center
Thu 10:46:39 34.0333 -82.2164 172° South 448 516 36,000  Level Atlanta Center
Thu 10:47:39 33.9267 -82.1986 172° South 448 516 36,000  Level Atlanta Center
Thu 10:48:39 33.8031 -82.1764 172° South 448 516 36,000  Level Atlanta Center
Thu 10:49:39 33.6797 -82.1664 176° South 448 516 36,000  Level Atlanta Center
Thu 10:50:39 33.5569 -82.1842 187° South 443 510 36,000  Level Atlanta Center
Thu 10:51:39 33.4383 -82.2042 188° South 436 502 36,000  Level Atlanta Center
Thu 10:52:39 33.3217 -82.2239 188° South 436 502 36,000  Level Atlanta Center
Thu 10:53:39 33.2008 -82.2439 188° South 441 507 36,000  Level Atlanta Center
Thu 10:54:39 33.0800 -82.2661 189° South 446 513 36,000  Level Atlanta Center
Thu 10:56:41 32.8228 -82.3067 188° South 451 519 36,000  Level Jacksonville Center
Thu 10:57:41 32.7017 -82.3247 187° South 446 513 36,000  Level Jacksonville Center
Thu 10:58:41 32.5808 -82.3428 187° South 446 513 36,000  Level Jacksonville Center
Thu 10:59:41 32.4556 -82.3656 189° South 446 513 36,000  Level Jacksonville Center
Thu 11:00:41 32.3408 -82.3811 187° South 441 507 36,000  Level Jacksonville Center
Thu 11:01:41 32.2178 -82.4014 188° South 441 507 36,000  Level Jacksonville Center
Thu 11:02:41 32.0947 -82.4217 188° South 446 513 36,000  Level Jacksonville Center
Thu 11:03:41 31.9736 -82.4394 187° South 446 513 36,000  Level Jacksonville Center
Thu 11:04:41 31.8525 -82.4597 188° South 446 513 36,000  Level Jacksonville Center
Thu 11:05:41 31.7294 -82.4822 189° South 446 513 36,000  Level Jacksonville Center
Thu 11:06:41 31.6211 -82.5292 200° South 441 507 36,000  Level Jacksonville Center
Thu 11:07:41 31.5231 -82.6025 213° Southwest 426 490 36,000  Level Jacksonville Center
Thu 11:08:41 31.4419 -82.6978 225° Southwest 419 482 36,000  Level Jacksonville Center
Thu 11:09:41 31.3814 -82.8075 237° Southwest 405 466 36,000  Level Jacksonville Center
Thu 11:10:41 31.3250 -82.9194 239° Southwest 405 466 36,000  Level Jacksonville Center
Thu 11:11:41 31.2792 -83.0189 242° Southwest 361 415 36,000  Level Jacksonville Center
Thu 11:17:13 30.7466 -83.4309 204° Southwest 417 480 36,000  Level FlightAware (KONZ)
Thu 11:18:21 30.6261 -83.4920 204° Southwest 415 478 36,000 -458 Level FlightAware (KONZ)
Thu 11:19:24 30.5148 -83.5483 204° Southwest 422 486 35,000 -536 Descending FlightAware (KONZ)
Thu 11:20:13 30.4274 -83.5920 203° Southwest 416 479 35,000  Level FlightAware (KONZ)
Thu 11:20:45 30.3696 -83.6210 204° Southwest 417 480 35,000 -750 Level FlightAware (KONZ)
Thu 11:21:25 30.2996 -83.6563 204° Southwest 422 486 34,100 -1,333 Descending FlightAware (KONZ)
Thu 11:22:15 30.2080 -83.6968 191° South 434 499 33,000 -485 Descending FlightAware (KONZ)
Thu 11:23:41 30.0408 -83.6747 191° South 426 490 33,000  Level Jacksonville Center
Thu 11:24:41 29.9178 -83.6497 170° South 434 499 33,000 -50 Level Jacksonville Center
Thu 11:25:41 29.7947 -83.6272 171° South 445 512 32,900  Descending Jacksonville Center
Thu 11:26:41 29.6736 -83.6025 170° South 445 512 33,000 50 Climbing Jacksonville Center
Thu 11:27:41 29.5486 -83.5778 170° South 445 512 33,000 -500 Level Jacksonville Center
Thu 11:28:41 29.4275 -83.5556 171° South 445 512 32,000 -1,950 Descending Jacksonville Center
Thu 11:29:41 29.3025 -83.5283 169° South 450 518 29,100 -2,800 Descending Jacksonville Center
Thu 11:30:41 29.1753 -83.4847 163° South 457 526 26,400 -2,350 Descending Jacksonville Center
Thu 11:31:41 29.0672 -83.4153 151° Southeast 449 517 24,400 -1,900 Descending Jacksonville Center
Thu 11:32:41 28.9608 -83.3458 150° Southeast 449 517 22,600 -1,850 Descending Jacksonville Center
Thu 11:33:41 28.8547 -83.2814 152° Southeast 443 510 20,700 -1,850 Descending Jacksonville Center
Thu 11:34:41 28.7547 -83.2147 150° Southeast 437 503 18,900 -1,750 Descending Jacksonville Center
Thu 11:35:41 28.6650 -83.1575 151° Southeast 419 482 17,200 -1,740 Descending Jacksonville Center
Thu 11:36:52 28.5333 -83.0833 154° Southeast 394 453 15,100 -1,510 Descending Tampa TRACON
Thu 11:38:04 28.4333 -83.0167 150° Southeast 346 398 13,600 -1,087 Descending Tampa TRACON
Thu 11:39:10 28.3500 -82.9667 152° Southeast 284 327 12,600 -1,381 Descending Tampa TRACON
Thu 11:40:10 28.3167 -82.8833 114° Southeast 275 316 10,700 -1,636 Descending Tampa TRACON
Thu 11:41:11 28.3167 -82.8000 90° East 237 273 9,300 -1,350 Descending Tampa TRACON
Thu 11:42:10 28.3000 -82.7500 111° Southeast 210 242 8,000 -1,440 Descending Tampa TRACON
Thu 11:43:16 28.2333 -82.7167 156° South 179 206 6,300 -1,190 Descending Tampa TRACON
Thu 11:44:16 28.2000 -82.7000 156° South 171 197 5,500 -1,091 Descending Tampa TRACON
Thu 11:45:17 28.1500 -82.6833 164° South 181 208 4,100 -1,636 Descending Tampa TRACON
Thu 11:46:17 28.1000 -82.6833 180° South 184 212 2,200 -1,368 Descending Tampa TRACON
Thu 11:47:11 28.0500 -82.6667 164° South 167 192 1,500 -526 Descending Tampa TRACON
Thu 11:48:11 28.0167 -82.6667 180° South 151 174 1,200 -368 Descending Tampa TRACON
Thu 11:49:05 27.9833 -82.6833 204° Southwest 138 159 800 -368 Descending Tampa TRACON
Thu 11:50:05 27.9500 -82.7000 204° Southwest 126 145 500 -300 Descending Tampa TRACON

Login

Don't have an account? Register now (free) for customized features, flight alerts, and more!